createdAt,value
2019-02-16T00:01:27.096Z,12.65
2019-02-16T00:03:56.084Z,13.62
2019-02-16T00:06:26.938Z,12.70
2019-02-16T00:08:55.996Z,12.98
2019-02-16T00:11:24.917Z,13.00
2019-02-16T00:13:53.836Z,12.37
2019-02-16T00:16:24.456Z,13.05
2019-02-16T00:18:53.676Z,13.00
2019-02-16T00:21:22.705Z,12.43
2019-02-16T00:23:51.517Z,14.05
2019-02-16T00:26:20.336Z,13.95
2019-02-16T00:28:50.657Z,13.25
2019-02-16T00:31:19.697Z,12.70
2019-02-16T00:33:50.623Z,13.55
2019-02-16T00:36:21.278Z,12.20
2019-02-16T00:38:50.117Z,13.50
2019-02-16T00:41:19.459Z,13.13
2019-02-16T00:43:48.617Z,12.45
2019-02-16T00:46:19.316Z,13.38
2019-02-16T00:51:19.317Z,13.15
2019-02-16T00:53:49.617Z,14.70
2019-02-16T00:56:20.136Z,13.13
2019-02-16T00:58:50.576Z,12.50
2019-02-16T01:01:19.916Z,13.80
2019-02-16T01:03:50.676Z,13.10
2019-02-16T01:06:19.904Z,13.70
2019-02-16T01:08:52.096Z,13.48
2019-02-16T01:11:24.136Z,13.83
2019-02-16T01:13:53.016Z,13.55
2019-02-16T01:16:21.817Z,13.25
2019-02-16T01:18:51.097Z,13.78
2019-02-16T01:21:23.077Z,13.28
2019-02-16T01:23:53.816Z,12.95
2019-02-16T01:26:22.797Z,12.63
2019-02-16T01:28:52.936Z,12.53
2019-02-16T01:31:21.956Z,13.48
2019-02-16T01:33:51.238Z,13.53
2019-02-16T01:36:20.321Z,13.15
2019-02-16T01:38:50.816Z,13.10
2019-02-16T01:41:19.776Z,12.70
2019-02-16T01:43:48.877Z,13.08
2019-02-16T01:46:19.399Z,13.32
2019-02-16T01:48:49.617Z,12.95
2019-02-16T01:51:19.857Z,12.70
2019-02-16T01:53:48.658Z,13.55
2019-02-16T01:56:17.676Z,13.50
2019-02-16T01:58:46.767Z,13.30
2019-02-16T02:01:17.652Z,14.15
2019-02-16T02:03:48.436Z,13.45
2019-02-16T02:08:45.818Z,13.30
2019-02-16T02:11:16.304Z,12.98
2019-02-16T02:13:45.696Z,12.47
2019-02-16T02:16:14.817Z,13.30
2019-02-16T02:18:44.859Z,13.45
2019-02-16T02:21:13.998Z,13.15
2019-02-16T02:23:46.138Z,12.20
2019-02-16T02:26:15.196Z,13.15
2019-02-16T02:28:45.356Z,12.58
2019-02-16T02:31:15.941Z,12.90
2019-02-16T02:36:13.537Z,13.32
2019-02-16T02:38:44.178Z,12.73
2019-02-16T02:41:16.236Z,13.05
2019-02-16T02:43:45.340Z,13.28
2019-02-16T02:46:14.338Z,12.47
2019-02-16T02:48:44.956Z,13.13
2019-02-16T02:51:15.827Z,13.68
2019-02-16T02:53:45.877Z,12.40
2019-02-16T02:56:17.398Z,12.30
2019-02-16T02:58:46.478Z,12.75
2019-02-16T03:01:15.337Z,12.33
2019-02-16T03:03:44.339Z,12.78
2019-02-16T03:06:13.218Z,12.18
2019-02-16T03:08:42.556Z,12.55
2019-02-16T03:11:12.738Z,11.78
2019-02-16T03:13:41.957Z,12.23
2019-02-16T03:16:11.505Z,12.90
2019-02-16T03:18:40.877Z,11.75
2019-02-16T03:21:09.936Z,12.45
2019-02-16T03:23:40.418Z,11.65
2019-02-16T03:26:12.557Z,12.23
2019-02-16T03:28:50.788Z,12.60
2019-02-16T03:31:31.819Z,12.13
2019-02-16T03:34:24.995Z,11.65
2019-02-16T03:37:16.937Z,12.50
2019-02-16T03:39:46.385Z,11.75
2019-02-16T03:42:15.217Z,10.95
2019-02-16T03:44:44.356Z,11.90
2019-02-16T03:47:13.319Z,11.03
2019-02-16T03:49:42.316Z,11.53
2019-02-16T03:52:13.944Z,11.22
2019-02-16T03:54:41.816Z,11.03
2019-02-16T03:57:11.024Z,11.43
2019-02-16T03:59:42.258Z,12.00
2019-02-16T04:02:11.246Z,10.98
2019-02-16T04:04:40.257Z,11.70
2019-02-16T04:07:09.296Z,11.15
2019-02-16T04:09:38.456Z,11.12
2019-02-16T04:12:07.747Z,11.35
2019-02-16T04:14:37.776Z,10.68
2019-02-16T04:17:07.416Z,11.57
2019-02-16T04:19:37.796Z,11.83
2019-02-16T04:22:07.733Z,10.98
2019-02-16T04:24:39.477Z,10.72
2019-02-16T04:27:10.319Z,10.75
2019-02-16T04:29:40.756Z,10.63
2019-02-16T04:32:12.624Z,10.75
2019-02-16T04:34:42.076Z,10.95
2019-02-16T04:37:11.437Z,10.93
2019-02-16T04:39:40.596Z,11.48
2019-02-16T04:42:09.816Z,10.68
2019-02-16T04:44:38.585Z,10.60
2019-02-16T04:47:07.717Z,10.95
2019-02-16T04:49:37.236Z,11.03
2019-02-16T04:52:06.557Z,10.35
2019-02-16T04:54:37.276Z,10.48
2019-02-16T04:59:34.802Z,10.23
2019-02-16T05:02:06.756Z,10.43
2019-02-16T05:04:38.197Z,10.63
2019-02-16T05:07:11.022Z,10.72
2019-02-16T05:09:39.936Z,10.45
2019-02-16T05:12:09.056Z,10.03
2019-02-16T05:14:38.777Z,10.45
2019-02-16T05:17:09.197Z,10.88
2019-02-16T05:19:38.099Z,9.98
2019-02-16T05:22:09.878Z,10.00
2019-02-16T05:24:39.056Z,10.50
2019-02-16T05:27:09.497Z,10.20
2019-02-16T05:29:38.497Z,10.20
2019-02-16T05:32:07.577Z,10.55
2019-02-16T05:34:36.596Z,9.75
2019-02-16T05:37:08.077Z,9.45
2019-02-16T05:39:40.049Z,10.53
2019-02-16T05:42:09.099Z,9.75
2019-02-16T05:44:37.996Z,10.55
2019-02-16T05:47:07.216Z,9.45
2019-02-16T05:49:38.644Z,9.73
2019-02-16T05:52:08.045Z,9.65
2019-02-16T05:54:38.356Z,9.83
2019-02-16T05:57:07.381Z,9.85
2019-02-16T05:59:37.857Z,9.88
2019-02-16T06:02:07.100Z,9.38
2019-02-16T06:04:37.398Z,9.68
2019-02-16T06:07:09.056Z,9.08
2019-02-16T06:09:38.137Z,9.68
2019-02-16T06:12:08.398Z,9.80
2019-02-16T06:14:38.925Z,8.55
2019-02-16T06:17:11.618Z,9.18
2019-02-16T06:19:42.136Z,9.25
2019-02-16T06:22:11.158Z,9.63
2019-02-16T06:24:40.176Z,9.13
2019-02-16T06:27:09.176Z,9.65
2019-02-16T06:29:38.036Z,8.58
2019-02-16T06:32:07.144Z,9.00
2019-02-16T06:34:36.409Z,8.55
2019-02-16T06:37:17.966Z,8.95
2019-02-16T06:39:47.001Z,8.23
2019-02-16T06:42:17.876Z,8.33
2019-02-16T06:47:15.044Z,8.55
2019-02-16T06:49:45.676Z,8.60
2019-02-16T06:54:45.197Z,8.30
2019-02-16T06:57:17.676Z,8.45
2019-02-16T06:59:46.917Z,8.20
2019-02-16T07:02:15.917Z,8.68
2019-02-16T07:04:45.036Z,8.35
2019-02-16T07:07:14.165Z,8.38
2019-02-16T07:09:43.717Z,8.10
2019-02-16T07:12:12.500Z,7.92
2019-02-16T07:14:41.296Z,8.05
2019-02-16T07:17:14.542Z,8.20
2019-02-16T07:19:45.056Z,7.75
2019-02-16T07:22:15.357Z,7.80
2019-02-16T07:24:44.357Z,7.83
2019-02-16T07:27:13.457Z,7.95
2019-02-16T07:29:42.456Z,7.65
2019-02-16T07:32:11.798Z,7.47
2019-02-16T07:34:41.017Z,7.60
2019-02-16T07:37:10.173Z,7.60
2019-02-16T07:39:40.497Z,7.87
2019-02-16T07:42:09.640Z,7.95
2019-02-16T07:44:46.157Z,7.70
2019-02-16T07:47:26.098Z,7.40
2019-02-16T07:49:56.657Z,7.77
2019-02-16T07:52:31.456Z,7.92
2019-02-16T07:55:01.936Z,8.03
2019-02-16T07:57:35.857Z,7.53
2019-02-16T08:00:11.116Z,8.35
2019-02-16T08:02:41.796Z,7.37
2019-02-16T08:05:18.637Z,8.40
2019-02-16T08:07:55.096Z,8.40
2019-02-16T08:10:34.536Z,8.00
2019-02-16T08:13:05.084Z,8.18
2019-02-16T08:15:45.240Z,7.25
2019-02-16T08:18:24.997Z,7.90
2019-02-16T08:21:03.640Z,8.20
2019-02-16T08:23:40.326Z,8.73
2019-02-16T08:26:16.916Z,8.25
2019-02-16T08:28:47.517Z,7.85
2019-02-16T08:31:24.457Z,8.95
2019-02-16T08:33:59.587Z,8.83
2019-02-16T08:36:31.597Z,8.55
2019-02-16T08:39:04.997Z,9.03
2019-02-16T08:41:35.897Z,8.63
2019-02-16T08:44:08.977Z,8.90
2019-02-16T08:46:51.996Z,9.13
2019-02-16T08:49:22.947Z,9.03
2019-02-16T08:51:56.637Z,9.45
2019-02-16T08:54:27.160Z,9.25
2019-02-16T08:56:58.096Z,8.78
2019-02-16T08:59:29.057Z,8.43
2019-02-16T09:02:17.605Z,8.93
2019-02-16T09:04:59.797Z,8.28
2019-02-16T09:07:42.917Z,8.63
2019-02-16T09:10:16.157Z,8.58
2019-02-16T09:12:49.536Z,7.97
2019-02-16T09:15:31.510Z,8.13
2019-02-16T09:18:04.896Z,8.30
2019-02-16T09:20:44.558Z,8.58
2019-02-16T09:23:16.324Z,7.92
2019-02-16T09:26:05.285Z,8.40
2019-02-16T09:28:40.452Z,7.20
2019-02-16T09:31:17.524Z,8.18
2019-02-16T09:33:58.157Z,8.43
2019-02-16T09:36:39.238Z,8.43
2019-02-16T09:39:20.256Z,8.35
2019-02-16T09:42:05.905Z,8.00
2019-02-16T09:44:49.744Z,8.23
2019-02-16T09:47:21.599Z,7.80
2019-02-16T09:49:58.276Z,7.17
2019-02-16T09:52:38.377Z,7.62
2019-02-16T09:55:11.776Z,7.53
2019-02-16T09:57:53.405Z,7.12
2019-02-16T10:00:26.897Z,8.23
2019-02-16T10:02:59.077Z,7.20
2019-02-16T10:05:29.444Z,7.58
2019-02-16T10:08:05.626Z,7.92
2019-02-16T10:10:48.783Z,7.25
2019-02-16T10:13:20.926Z,7.42
2019-02-16T10:15:51.456Z,7.40
2019-02-16T10:18:24.920Z,7.58
2019-02-16T10:20:59.617Z,7.70
2019-02-16T10:23:30.416Z,7.65
2019-02-16T10:29:01.257Z,7.08
2019-02-16T10:31:32.277Z,7.50
2019-02-16T10:34:19.077Z,7.80
2019-02-16T10:37:06.084Z,6.83
2019-02-16T10:39:36.764Z,7.15
2019-02-16T10:42:14.898Z,7.20
2019-02-16T10:44:45.477Z,7.45
2019-02-16T10:47:23.436Z,7.35
2019-02-16T10:50:06.037Z,6.90
2019-02-16T10:52:39.617Z,8.25
2019-02-16T10:55:26.556Z,7.97
2019-02-16T10:58:04.119Z,8.18
2019-02-16T11:00:36.217Z,8.15
2019-02-16T11:03:23.316Z,8.15
2019-02-16T11:05:55.216Z,8.73
2019-02-16T11:08:31.825Z,7.55
2019-02-16T11:11:11.617Z,8.30
2019-02-16T11:13:43.677Z,9.60
2019-02-16T11:16:22.537Z,9.75
2019-02-16T11:19:05.536Z,9.53
2019-02-16T11:21:52.956Z,9.35
2019-02-16T11:24:26.037Z,8.75
2019-02-16T11:26:56.479Z,8.88
2019-02-16T11:29:28.240Z,9.35
2019-02-16T11:32:06.836Z,8.90
2019-02-16T11:34:54.057Z,9.38
2019-02-16T11:37:45.101Z,8.53
2019-02-16T11:40:17.999Z,8.00
2019-02-16T11:42:51.536Z,8.33
2019-02-16T11:45:27.026Z,8.90
2019-02-16T11:48:00.872Z,8.28
2019-02-16T11:50:42.585Z,8.08
2019-02-16T11:53:20.745Z,9.00
2019-02-16T11:56:06.808Z,8.10
2019-02-16T11:58:44.396Z,9.05
2019-02-16T12:01:35.530Z,8.65
2019-02-16T12:04:06.058Z,8.73
2019-02-16T12:06:43.417Z,8.60
2019-02-16T12:09:23.027Z,8.33
2019-02-16T12:12:11.576Z,8.58
2019-02-16T12:14:58.037Z,8.83
2019-02-16T12:17:28.881Z,9.08
2019-02-16T12:20:00.254Z,8.03
2019-02-16T12:22:33.992Z,8.00
2019-02-16T12:25:06.015Z,7.75
2019-02-16T12:27:48.892Z,8.10
2019-02-16T12:30:24.018Z,7.95
2019-02-16T12:33:03.278Z,7.55
2019-02-16T12:35:33.798Z,8.03
2019-02-16T12:38:07.017Z,7.95
2019-02-16T12:40:38.338Z,8.20
2019-02-16T12:43:20.637Z,7.92
2019-02-16T12:45:51.556Z,7.60
2019-02-16T12:48:26.197Z,8.25
2019-02-16T12:50:59.564Z,7.97
2019-02-16T12:53:36.477Z,8.20
2019-02-16T12:56:06.833Z,7.97
2019-02-16T12:58:41.518Z,8.15
2019-02-16T13:01:19.120Z,8.03
2019-02-16T13:04:05.937Z,8.20
2019-02-16T13:06:45.065Z,8.03
2019-02-16T13:09:24.297Z,8.05
2019-02-16T13:12:11.519Z,7.75
2019-02-16T13:14:58.239Z,8.08
2019-02-16T13:17:31.498Z,7.97
2019-02-16T13:20:04.918Z,7.58
2019-02-16T13:22:35.437Z,7.80
2019-02-16T13:25:08.997Z,7.28
2019-02-16T13:27:56.157Z,7.47
2019-02-16T13:30:29.439Z,8.08
2019-02-16T13:33:08.505Z,7.92
2019-02-16T13:35:40.387Z,7.72
2019-02-16T13:38:27.374Z,7.50
2019-02-16T13:41:00.417Z,7.47
2019-02-16T13:43:31.057Z,7.67
2019-02-16T13:46:16.917Z,7.80
2019-02-16T13:48:53.637Z,7.62
2019-02-16T13:51:24.437Z,7.35
2019-02-16T13:56:37.617Z,7.90
2019-02-16T13:59:24.877Z,7.50
2019-02-16T14:01:57.925Z,7.00
2019-02-16T14:04:28.496Z,7.87
2019-02-16T14:07:02.025Z,7.35
2019-02-16T14:09:37.336Z,7.50
2019-02-16T14:12:10.897Z,7.67
2019-02-16T14:14:58.336Z,7.40
2019-02-16T14:17:29.256Z,8.00
2019-02-16T14:19:59.565Z,7.55
2019-02-16T14:22:29.096Z,7.40
2019-02-16T14:24:59.576Z,7.53
2019-02-16T14:27:28.644Z,7.70
2019-02-16T14:29:57.768Z,7.58
2019-02-16T14:32:27.137Z,7.97
2019-02-16T14:34:59.057Z,7.15
2019-02-16T14:37:34.099Z,7.10
2019-02-16T14:40:05.444Z,8.03
2019-02-16T14:42:34.596Z,7.53
2019-02-16T14:45:04.184Z,7.78
2019-02-16T14:47:33.296Z,7.80
2019-02-16T14:50:03.717Z,7.67
2019-02-16T14:52:32.836Z,7.25
2019-02-16T14:55:04.777Z,7.97
2019-02-16T14:57:34.044Z,7.92
2019-02-16T15:00:03.257Z,8.03
2019-02-16T15:02:32.423Z,7.45
2019-02-16T15:05:01.936Z,8.20
2019-02-16T15:07:30.917Z,7.90
2019-02-16T15:10:01.256Z,8.13
2019-02-16T15:12:31.816Z,7.50
2019-02-16T15:15:00.876Z,7.50
2019-02-16T15:17:29.981Z,7.85
2019-02-16T15:20:01.957Z,7.90
2019-02-16T15:22:31.016Z,8.45
2019-02-16T15:25:00.900Z,8.58
2019-02-16T15:27:31.077Z,8.53
2019-02-16T15:30:00.678Z,8.35
2019-02-16T15:32:29.688Z,8.00
2019-02-16T15:35:00.332Z,8.30
2019-02-16T15:37:29.677Z,8.13
2019-02-16T15:40:00.323Z,8.15
2019-02-16T15:45:02.024Z,8.83
2019-02-16T15:47:31.216Z,9.15
2019-02-16T15:50:00.416Z,9.43
2019-02-16T15:52:29.597Z,8.90
2019-02-16T15:54:59.936Z,8.90
2019-02-16T15:57:28.840Z,8.85
2019-02-16T15:59:58.287Z,8.98
2019-02-16T16:02:27.437Z,9.08
2019-02-16T16:04:56.476Z,9.65
2019-02-16T16:07:25.596Z,9.33
2019-02-16T16:10:02.996Z,8.90
2019-02-16T16:12:39.376Z,8.90
2019-02-16T16:15:10.724Z,9.55
2019-02-16T16:17:42.685Z,9.65
2019-02-16T16:20:19.459Z,9.70
2019-02-16T16:22:50.116Z,9.58
2019-02-16T16:25:20.557Z,9.03
2019-02-16T16:28:08.676Z,9.05
2019-02-16T16:30:44.917Z,9.43
2019-02-16T16:33:30.396Z,9.80
2019-02-16T16:36:18.437Z,10.00
2019-02-16T16:38:51.497Z,10.50
2019-02-16T16:41:22.019Z,9.80
2019-02-16T16:44:10.597Z,10.68
2019-02-16T16:46:45.636Z,10.10
2019-02-16T16:49:22.836Z,10.45
2019-02-16T16:51:53.476Z,10.35
2019-02-16T16:56:59.265Z,10.10
2019-02-16T16:59:31.460Z,10.68
2019-02-16T17:02:04.896Z,10.70
2019-02-16T17:04:48.736Z,9.30
2019-02-16T17:07:26.596Z,10.20
2019-02-16T17:10:07.661Z,10.85
2019-02-16T17:12:44.676Z,10.28
2019-02-16T17:15:22.597Z,10.88
2019-02-16T17:17:53.082Z,10.55
2019-02-16T17:20:26.756Z,10.75
2019-02-16T17:23:03.216Z,11.40
2019-02-16T17:25:40.296Z,11.30
2019-02-16T17:28:13.816Z,11.00
2019-02-16T17:30:45.984Z,11.33
2019-02-16T17:33:20.378Z,11.12
2019-02-16T17:35:50.716Z,11.12
2019-02-16T17:38:22.437Z,11.53
2019-02-16T17:41:03.485Z,12.18
2019-02-16T17:43:47.157Z,11.97
2019-02-16T17:46:33.237Z,11.85
2019-02-16T17:49:09.877Z,12.20
2019-02-16T17:51:40.537Z,12.60
2019-02-16T17:54:14.019Z,12.15
2019-02-16T17:56:48.976Z,12.25
2019-02-16T17:59:25.212Z,12.13
2019-02-16T18:02:05.198Z,12.58
2019-02-16T18:04:38.687Z,11.10
2019-02-16T18:07:11.164Z,12.23
2019-02-16T18:09:43.316Z,12.15
2019-02-16T18:12:16.765Z,11.78
2019-02-16T18:15:03.737Z,11.97
2019-02-16T18:17:41.439Z,12.58
2019-02-16T18:20:17.359Z,12.93
2019-02-16T18:22:52.817Z,13.08
2019-02-16T18:25:24.396Z,12.88
2019-02-16T18:28:08.152Z,12.88
2019-02-16T18:30:40.196Z,13.38
2019-02-16T18:33:16.719Z,13.30
2019-02-16T18:35:51.276Z,13.50
2019-02-16T18:38:34.838Z,14.07
2019-02-16T18:41:11.917Z,13.38
2019-02-16T18:43:45.518Z,13.80
2019-02-16T18:46:19.037Z,14.20
2019-02-16T18:48:51.197Z,14.33
2019-02-16T18:51:38.625Z,14.50
2019-02-16T18:54:15.037Z,14.58
2019-02-16T18:56:45.476Z,13.48
2019-02-16T18:59:29.416Z,13.75
2019-02-16T19:02:06.416Z,13.95
2019-02-16T19:04:48.438Z,14.65
2019-02-16T19:07:18.836Z,14.58
2019-02-16T19:09:49.786Z,14.55
2019-02-16T19:12:38.376Z,14.05
2019-02-16T19:15:26.827Z,15.05
2019-02-16T19:17:59.700Z,14.35
2019-02-16T19:20:48.457Z,14.95
2019-02-16T19:23:32.645Z,14.98
2019-02-16T19:26:05.958Z,14.40
2019-02-16T19:28:36.598Z,15.08
2019-02-16T19:31:22.997Z,14.85
2019-02-16T19:33:57.156Z,15.95
2019-02-16T19:36:28.257Z,16.25
2019-02-16T19:39:15.179Z,15.45
2019-02-16T19:42:01.877Z,15.90
2019-02-16T19:44:32.437Z,15.45
2019-02-16T19:47:12.257Z,16.25
2019-02-16T19:50:01.219Z,16.95
2019-02-16T19:52:33.405Z,16.30
2019-02-16T19:55:14.477Z,16.50
2019-02-16T19:57:46.678Z,15.25
2019-02-16T20:00:21.878Z,16.70
2019-02-16T20:02:52.417Z,16.97
2019-02-16T20:05:41.078Z,16.17
2019-02-16T20:08:27.656Z,17.07
2019-02-16T20:11:14.477Z,17.35
2019-02-16T20:13:48.064Z,17.32
2019-02-16T20:16:18.557Z,17.30
2019-02-16T20:19:08.897Z,17.23
2019-02-16T20:21:39.517Z,17.42
2019-02-16T20:24:26.736Z,16.93
2019-02-16T20:26:57.369Z,16.80
2019-02-16T20:29:28.119Z,17.42
2019-02-16T20:34:50.284Z,17.57
2019-02-16T20:37:42.701Z,17.52
2019-02-16T20:40:13.196Z,17.17
2019-02-16T20:42:46.156Z,18.30
2019-02-16T20:45:16.637Z,18.27
2019-02-16T20:47:55.637Z,17.75
2019-02-16T20:50:38.176Z,17.10
2019-02-16T20:53:14.137Z,18.50
2019-02-16T20:55:44.743Z,17.98
2019-02-16T20:58:23.896Z,18.45
2019-02-16T21:00:54.236Z,18.40
2019-02-16T21:03:41.956Z,17.75
2019-02-16T21:06:18.740Z,19.17
2019-02-16T21:09:07.799Z,18.67
2019-02-16T21:11:41.315Z,18.77
2019-02-16T21:14:14.951Z,18.05
2019-02-16T21:16:50.952Z,18.42
2019-02-16T21:19:30.796Z,19.15
2019-02-16T21:22:16.396Z,18.57
2019-02-16T21:24:46.918Z,18.77
2019-02-16T21:27:32.399Z,18.10
2019-02-16T21:30:10.496Z,19.65
2019-02-16T21:32:41.119Z,18.95
2019-02-16T21:35:37.073Z,19.70
2019-02-16T21:38:09.008Z,19.20
2019-02-16T21:40:49.777Z,19.20
2019-02-16T21:45:58.837Z,19.90
2019-02-16T21:48:30.296Z,19.27
2019-02-16T21:51:17.627Z,19.62
2019-02-16T21:53:48.158Z,19.50
2019-02-16T21:56:24.817Z,19.62
2019-02-16T21:58:57.757Z,19.10
2019-02-16T22:01:43.796Z,19.77
2019-02-16T22:04:24.956Z,20.45
2019-02-16T22:07:06.036Z,20.08
2019-02-16T22:09:52.756Z,20.10
2019-02-16T22:12:41.618Z,20.57
2019-02-16T22:15:10.696Z,19.37
2019-02-16T22:17:40.724Z,19.98
2019-02-16T22:20:10.510Z,20.88
2019-02-16T22:22:39.459Z,20.72
2019-02-16T22:25:08.321Z,21.10
2019-02-16T22:27:37.857Z,20.92
2019-02-16T22:30:09.836Z,20.10
2019-02-16T22:32:40.316Z,21.25
2019-02-16T22:35:09.276Z,21.80
2019-02-16T22:37:39.699Z,20.77
2019-02-16T22:40:09.398Z,20.75
2019-02-16T22:42:38.517Z,21.90
2019-02-16T22:45:10.576Z,21.23
2019-02-16T22:47:39.378Z,22.07
2019-02-16T22:50:10.256Z,21.37
2019-02-16T22:55:09.277Z,21.50
2019-02-16T22:57:39.861Z,21.48
2019-02-16T23:00:21.396Z,21.33
2019-02-16T23:02:50.696Z,20.57
2019-02-16T23:05:20.876Z,21.23
2019-02-16T23:07:49.936Z,21.52
2019-02-16T23:10:20.156Z,21.90
2019-02-16T23:12:49.056Z,22.10
2019-02-16T23:15:18.256Z,22.32
2019-02-16T23:17:47.156Z,22.27
2019-02-16T23:20:17.697Z,21.35
2019-02-16T23:22:47.096Z,21.80
2019-02-16T23:25:15.927Z,20.80
2019-02-16T23:27:46.776Z,21.10
2019-02-16T23:32:44.336Z,22.02
2019-02-16T23:35:15.896Z,22.60
2019-02-16T23:37:44.716Z,21.12
2019-02-16T23:40:13.536Z,22.62
2019-02-16T23:42:42.616Z,22.60
2019-02-16T23:45:11.624Z,21.77
2019-02-16T23:47:42.257Z,21.00
2019-02-16T23:50:11.696Z,21.75
2019-02-16T23:52:41.856Z,21.42
2019-02-16T23:55:12.616Z,22.07
2019-02-16T23:57:43.477Z,21.30
